Time;durP1;ratioP1;P1;durP2;ratioP2;P2;SDS_P1;SDS_P2;PMS_P1;PMS_P2;Temp;Humidity;BMP_temperature;BMP_pressure;BME280_temperature;BME280_humidity;BME280_pressure;Samples;Min_cycle;Max_cycle;Signal;HPM_P1;HPM_P2
2022/01/08 00:01:09;;;;;;;8.50;5.27;;;4.50;99.90;;;;;;4985441;28;20574;-69
2022/01/08 00:03:36;;;;;;;8.70;5.00;;;4.50;99.90;;;;;;4985622;28;20201;-69
2022/01/08 00:06:03;;;;;;;8.30;4.97;;;4.40;99.90;;;;;;4986938;28;20707;-70
2022/01/08 00:08:30;;;;;;;8.23;4.80;;;4.30;99.90;;;;;;4992055;28;20199;-69
2022/01/08 00:10:58;;;;;;;6.73;4.43;;;4.30;99.90;;;;;;4988340;28;20203;-69
2022/01/08 00:13:24;;;;;;;7.57;4.17;;;4.30;99.90;;;;;;4982618;28;20221;-69
2022/01/08 00:15:51;;;;;;;8.10;4.67;;;4.30;99.90;;;;;;4986997;28;20690;-69
2022/01/08 00:18:18;;;;;;;7.00;4.57;;;4.20;99.90;;;;;;4990953;28;20258;-69
2022/01/08 00:20:44;;;;;;;6.30;4.37;;;4.10;99.90;;;;;;4985646;28;20258;-67
2022/01/08 00:23:11;;;;;;;7.80;4.33;;;4.10;99.90;;;;;;4987641;28;20202;-69
2022/01/08 00:25:38;;;;;;;6.10;4.03;;;4.10;99.90;;;;;;4985184;28;20212;-70
2022/01/08 00:28:05;;;;;;;8.67;4.33;;;4.10;99.90;;;;;;4987558;28;20225;-69
2022/01/08 00:30:32;;;;;;;6.60;4.20;;;4.10;99.90;;;;;;4988963;28;20202;-71
2022/01/08 00:32:59;;;;;;;7.47;4.50;;;4.20;99.90;;;;;;4990081;28;20299;-69
2022/01/08 00:35:27;;;;;;;6.33;4.47;;;4.20;99.90;;;;;;4984856;28;20253;-69
2022/01/08 00:37:54;;;;;;;8.30;5.00;;;4.30;99.90;;;;;;4987505;28;20220;-69
2022/01/08 00:40:21;;;;;;;8.07;4.87;;;4.30;99.90;;;;;;4983950;28;20203;-67
2022/01/08 00:42:48;;;;;;;8.70;5.10;;;4.20;99.90;;;;;;4991445;28;20207;-69
2022/01/08 00:45:14;;;;;;;7.33;4.50;;;4.20;99.90;;;;;;4986291;28;20227;-69
2022/01/08 00:47:41;;;;;;;7.03;4.97;;;4.00;99.90;;;;;;4983659;28;20205;-69
2022/01/08 00:50:10;;;;;;;6.63;4.53;;;4.20;99.90;;;;;;4991151;28;20292;-71
2022/01/08 00:52:36;;;;;;;6.77;4.63;;;4.10;99.90;;;;;;4988872;28;20214;-69
2022/01/08 00:55:03;;;;;;;9.23;5.10;;;4.10;99.90;;;;;;4973961;28;20721;-69
2022/01/08 00:57:30;;;;;;;7.53;4.70;;;3.90;99.90;;;;;;4978645;28;20209;-71
2022/01/08 00:59:56;;;;;;;7.63;4.97;;;3.90;99.90;;;;;;4988323;28;20669;-69
2022/01/08 01:02:23;;;;;;;7.27;4.90;;;3.70;99.90;;;;;;4988753;28;20204;-69
2022/01/08 01:04:50;;;;;;;9.43;5.37;;;3.60;99.90;;;;;;4985904;28;20218;-71
2022/01/08 01:07:17;;;;;;;10.50;5.57;;;3.50;99.90;;;;;;4985630;28;20219;-69
2022/01/08 01:09:44;;;;;;;8.97;5.10;;;3.50;99.90;;;;;;4988952;28;20247;-68
2022/01/08 01:12:10;;;;;;;10.23;5.77;;;3.40;99.90;;;;;;4978310;28;20226;-69
2022/01/08 01:14:57;;;;;;;7.97;5.30;;;3.30;99.90;;;;;;4983880;28;20240;-68
2022/01/08 01:17:23;;;;;;;9.13;5.43;;;3.20;99.90;;;;;;4985366;28;20267;-68
2022/01/08 01:19:50;;;;;;;10.50;5.70;;;3.20;99.90;;;;;;4985940;28;20321;-70
2022/01/08 01:22:20;;;;;;;10.20;6.50;;;3.10;99.90;;;;;;4984783;28;20199;-69
2022/01/08 01:24:49;;;;;;;11.03;6.17;;;3.00;99.90;;;;;;4981400;28;20291;-69
2022/01/08 01:27:51;;;;;;;11.73;6.83;;;2.90;99.90;;;;;;4987065;28;20208;-68
2022/01/08 01:30:13;;;;;;;12.80;6.50;;;2.80;99.90;;;;;;4982566;28;20204;-68
2022/01/08 01:49:03;;;;;;;11.37;6.87;;;2.40;99.90;;;;;;4987886;28;20273;-69
2022/01/08 01:51:30;;;;;;;11.00;6.43;;;2.20;99.90;;;;;;4984610;28;20205;-71
2022/01/08 01:53:57;;;;;;;12.57;7.43;;;2.20;99.90;;;;;;4976130;28;20270;-68
2022/01/08 01:56:23;;;;;;;11.80;6.60;;;2.10;99.90;;;;;;4989104;28;20212;-68
2022/01/08 01:58:50;;;;;;;9.97;6.53;;;2.10;99.90;;;;;;4986868;28;20224;-69
2022/01/08 02:01:17;;;;;;;12.70;6.60;;;2.30;99.90;;;;;;4986565;28;20223;-69
2022/01/08 02:03:44;;;;;;;11.07;6.70;;;2.30;99.90;;;;;;4974392;28;20276;-68
2022/01/08 02:06:11;;;;;;;10.43;6.30;;;2.30;99.90;;;;;;4984884;28;20723;-68
2022/01/08 02:08:38;;;;;;;12.80;7.13;;;2.40;99.90;;;;;;4985475;28;20627;-69
2022/01/08 02:11:07;;;;;;;12.50;6.53;;;2.30;99.90;;;;;;4982736;28;20211;-69
2022/01/08 02:13:34;;;;;;;11.87;6.60;;;2.30;99.90;;;;;;4980699;28;20281;-70
2022/01/08 02:16:01;;;;;;;10.63;6.53;;;2.30;99.90;;;;;;4987444;28;20220;-68
2022/01/08 02:18:29;;;;;;;12.03;6.80;;;2.20;99.90;;;;;;4988717;28;20206;-69
2022/01/08 02:20:57;;;;;;;14.67;6.97;;;2.10;99.90;;;;;;4988457;28;20902;-68
2022/01/08 02:23:24;;;;;;;12.00;6.77;;;2.00;99.90;;;;;;4979085;28;20204;-69
2022/01/08 02:25:51;;;;;;;11.47;6.23;;;1.90;99.90;;;;;;4986168;28;20216;-68
2022/01/08 02:28:18;;;;;;;11.73;6.77;;;1.90;99.90;;;;;;4986038;28;20258;-68
2022/01/08 02:30:44;;;;;;;12.13;6.83;;;1.80;99.90;;;;;;4984396;28;20683;-70
2022/01/08 02:33:11;;;;;;;11.63;6.40;;;1.70;99.90;;;;;;4979467;28;20624;-68
2022/01/08 02:35:38;;;;;;;10.47;5.90;;;1.60;99.90;;;;;;4984770;28;20212;-67
2022/01/08 02:38:04;;;;;;;8.30;5.40;;;1.60;99.90;;;;;;4986688;28;20203;-68
2022/01/08 02:40:31;;;;;;;10.47;5.40;;;1.60;99.90;;;;;;4976316;28;20203;-69
2022/01/08 02:43:04;;;;;;;9.17;5.33;;;1.50;99.90;;;;;;4983763;28;20714;-68
2022/01/08 02:45:31;;;;;;;8.03;4.83;;;1.60;99.90;;;;;;4983890;28;20218;-68
2022/01/08 02:47:58;;;;;;;7.73;4.70;;;1.60;99.90;;;;;;4988645;28;20217;-69
2022/01/08 02:50:25;;;;;;;6.03;3.80;;;1.60;99.90;;;;;;4988971;28;20573;-68
2022/01/08 02:52:51;;;;;;;5.13;3.20;;;1.60;99.90;;;;;;4978360;28;20221;-69
2022/01/08 02:55:20;;;;;;;5.20;3.23;;;1.50;99.90;;;;;;4980966;28;20222;-70
2022/01/08 02:57:48;;;;;;;4.53;2.90;;;1.50;99.90;;;;;;4984658;28;20622;-68
2022/01/08 03:00:18;;;;;;;5.07;2.70;;;1.50;99.90;;;;;;4987849;28;20607;-68
2022/01/08 03:02:47;;;;;;;4.70;2.80;;;1.60;99.90;;;;;;4981208;28;20216;-70
2022/01/08 03:05:14;;;;;;;3.87;2.27;;;1.60;99.90;;;;;;4976709;28;20224;-68
2022/01/08 03:07:42;;;;;;;3.10;1.90;;;1.70;99.90;;;;;;4979773;28;20202;-69
2022/01/08 03:10:13;;;;;;;2.83;1.93;;;1.70;99.90;;;;;;4976559;28;20205;-69
2022/01/08 03:12:43;;;;;;;4.73;1.80;;;1.70;99.90;;;;;;4986760;28;20218;-68
2022/01/08 03:15:12;;;;;;;2.30;1.60;;;1.70;99.90;;;;;;4981571;28;20218;-68
2022/01/08 03:17:40;;;;;;;2.47;1.70;;;1.70;99.90;;;;;;4986481;28;20194;-67
2022/01/08 03:20:12;;;;;;;1.73;1.33;;;1.80;99.90;;;;;;4986965;28;20202;-68
2022/01/08 03:22:41;;;;;;;2.10;1.20;;;1.70;99.90;;;;;;4981327;28;20547;-68
2022/01/08 03:25:08;;;;;;;2.40;1.70;;;1.70;99.90;;;;;;4984385;28;20219;-68
2022/01/08 03:27:35;;;;;;;3.17;1.90;;;1.70;99.90;;;;;;4984159;28;20215;-68
2022/01/08 03:30:05;;;;;;;2.93;1.83;;;1.70;99.90;;;;;;4988589;28;20807;-68
2022/01/08 03:32:32;;;;;;;2.50;1.80;;;1.70;99.90;;;;;;4985912;28;20282;-68
2022/01/08 03:34:59;;;;;;;2.30;1.67;;;1.70;99.90;;;;;;4987973;28;20234;-68
2022/01/08 03:37:26;;;;;;;2.27;1.60;;;1.70;99.90;;;;;;4991090;28;20195;-68
2022/01/08 03:39:53;;;;;;;2.27;1.80;;;1.70;99.90;;;;;;4977984;28;20204;-69
2022/01/08 03:42:19;;;;;;;2.10;1.70;;;1.80;99.90;;;;;;4985914;28;20196;-66
2022/01/08 03:44:46;;;;;;;2.47;1.57;;;1.80;99.90;;;;;;4984779;28;20229;-68
2022/01/08 03:49:49;;;;;;;2.43;1.60;;;1.90;99.90;;;;;;4981599;28;20193;-69
2022/01/08 03:52:16;;;;;;;2.33;1.80;;;1.90;99.90;;;;;;4990300;28;20255;-68
2022/01/08 03:54:43;;;;;;;2.20;1.60;;;1.90;99.90;;;;;;4987043;28;20219;-68
2022/01/08 03:57:09;;;;;;;2.07;1.57;;;1.90;99.90;;;;;;4987610;28;20209;-67
2022/01/08 03:59:36;;;;;;;2.20;1.60;;;1.80;99.90;;;;;;4992219;28;20271;-69
2022/01/08 04:02:04;;;;;;;2.17;1.40;;;1.80;99.90;;;;;;4991321;28;20196;-68
2022/01/08 04:04:31;;;;;;;1.77;1.40;;;1.80;99.90;;;;;;4990845;28;20239;-68
2022/01/08 04:06:57;;;;;;;1.47;1.27;;;1.70;99.90;;;;;;4980811;28;20208;-68
2022/01/08 04:09:24;;;;;;;2.37;1.53;;;1.70;99.90;;;;;;4985896;28;20196;-68
2022/01/08 04:11:52;;;;;;;2.37;1.60;;;1.80;99.90;;;;;;4988867;28;20624;-67
2022/01/08 04:14:19;;;;;;;1.73;1.50;;;1.80;99.90;;;;;;4990834;28;20234;-67
2022/01/08 04:16:50;;;;;;;2.17;1.70;;;1.70;99.90;;;;;;4984846;28;20208;-68
2022/01/08 04:19:19;;;;;;;3.27;2.17;;;1.70;99.90;;;;;;4987044;28;20197;-67
2022/01/08 04:24:15;;;;;;;1.97;1.60;;;1.70;99.90;;;;;;4983363;28;20655;-67
2022/01/08 04:26:41;;;;;;;1.47;1.20;;;1.60;99.90;;;;;;4988695;28;20202;-67
2022/01/08 04:29:08;;;;;;;0.97;0.80;;;1.60;99.90;;;;;;4989869;28;20203;-69
2022/01/08 04:31:35;;;;;;;1.53;1.10;;;1.80;99.90;;;;;;4990341;28;20622;-68
2022/01/08 04:34:02;;;;;;;1.20;1.10;;;1.80;99.90;;;;;;4987841;28;20279;-68
2022/01/08 04:36:28;;;;;;;1.83;1.40;;;1.80;99.90;;;;;;4987121;28;20202;-69
2022/01/08 04:38:55;;;;;;;0.87;0.87;;;1.80;99.90;;;;;;4987691;28;20206;-68
2022/01/08 04:41:22;;;;;;;0.67;0.57;;;1.70;99.90;;;;;;4990085;28;20206;-66
2022/01/08 04:43:49;;;;;;;0.60;0.60;;;1.90;99.90;;;;;;4985769;28;20374;-67
2022/01/08 04:46:15;;;;;;;1.60;0.70;;;1.90;99.90;;;;;;4985839;28;20657;-68
2022/01/08 04:48:42;;;;;;;1.13;0.67;;;1.90;99.90;;;;;;4990404;28;20269;-68
2022/01/08 04:51:09;;;;;;;0.70;0.70;;;2.00;99.90;;;;;;4989257;28;20679;-68
2022/01/08 04:53:36;;;;;;;1.13;0.80;;;1.90;99.90;;;;;;4989644;28;20218;-70
2022/01/08 04:56:03;;;;;;;1.80;0.87;;;1.90;99.90;;;;;;4988056;28;20219;-68
2022/01/08 04:58:29;;;;;;;1.10;0.70;;;2.00;99.90;;;;;;4989616;28;20274;-68
2022/01/08 05:00:56;;;;;;;1.07;0.90;;;2.00;99.90;;;;;;4985758;28;20198;-70
2022/01/08 05:03:23;;;;;;;0.87;0.70;;;2.00;99.90;;;;;;4984288;28;20227;-70
2022/01/08 05:05:50;;;;;;;2.10;0.80;;;1.90;99.90;;;;;;4983796;28;20784;-68
2022/01/08 05:08:17;;;;;;;1.83;0.90;;;2.00;99.90;;;;;;4986962;28;20648;-68
2022/01/08 05:10:43;;;;;;;1.83;1.00;;;2.10;99.90;;;;;;4986187;28;20200;-68
2022/01/08 05:13:10;;;;;;;1.47;1.37;;;2.20;99.90;;;;;;4988181;28;20288;-68
2022/01/08 05:15:37;;;;;;;3.77;1.60;;;2.20;99.90;;;;;;4989255;28;20219;-68
2022/01/08 05:18:06;;;;;;;3.57;1.90;;;2.20;99.90;;;;;;4985481;28;20199;-68
2022/01/08 05:20:36;;;;;;;2.63;1.83;;;2.20;99.90;;;;;;4987806;28;20192;-68
2022/01/08 05:23:03;;;;;;;3.57;2.10;;;2.10;99.90;;;;;;4983044;28;20203;-68
2022/01/08 05:25:30;;;;;;;2.70;1.93;;;2.10;99.90;;;;;;4982499;28;20217;-67
2022/01/08 05:27:58;;;;;;;6.23;2.30;;;2.00;99.90;;;;;;4984611;28;20208;-68
2022/01/08 05:30:26;;;;;;;3.80;2.50;;;2.10;99.90;;;;;;4988537;28;20613;-68
2022/01/08 05:32:54;;;;;;;3.57;2.23;;;2.10;99.90;;;;;;4986893;28;20224;-67
2022/01/08 05:35:22;;;;;;;3.93;2.40;;;2.00;99.90;;;;;;4981247;28;20208;-68
2022/01/08 05:37:49;;;;;;;3.77;2.53;;;1.90;99.90;;;;;;4986449;28;20561;-66
2022/01/08 05:40:16;;;;;;;4.37;2.90;;;1.90;99.90;;;;;;4986334;28;20250;-68
2022/01/08 05:42:42;;;;;;;3.50;2.53;;;2.00;99.90;;;;;;4987639;28;20204;-70
2022/01/08 05:45:10;;;;;;;5.97;3.13;;;2.00;99.90;;;;;;4985130;28;20220;-65
2022/01/08 05:47:37;;;;;;;6.00;3.57;;;2.00;99.90;;;;;;4986943;28;20210;-68
2022/01/08 05:50:04;;;;;;;7.53;3.67;;;2.00;99.90;;;;;;4985242;28;20659;-68
2022/01/08 05:52:31;;;;;;;7.70;3.60;;;2.00;99.90;;;;;;4986484;28;20216;-69
2022/01/08 05:54:58;;;;;;;10.97;4.23;;;2.10;99.90;;;;;;4986608;28;20231;-68
2022/01/08 05:57:25;;;;;;;7.57;3.80;;;2.20;99.90;;;;;;4984193;28;20209;-68
2022/01/08 05:59:52;;;;;;;7.37;3.80;;;2.20;99.90;;;;;;4987136;28;20208;-71
2022/01/08 06:02:18;;;;;;;6.80;4.00;;;2.30;99.90;;;;;;4986173;28;20200;-70
2022/01/08 06:04:45;;;;;;;8.13;4.00;;;2.40;99.90;;;;;;4988075;28;20323;-68
2022/01/08 06:07:13;;;;;;;13.80;4.37;;;2.30;99.90;;;;;;4989650;28;20193;-68
2022/01/08 06:09:40;;;;;;;9.07;4.33;;;2.30;99.90;;;;;;5002454;28;20617;-69
2022/01/08 06:12:08;;;;;;;9.30;3.93;;;2.20;99.90;;;;;;4980066;28;20687;-68
2022/01/08 06:14:34;;;;;;;7.83;4.03;;;2.30;99.90;;;;;;4986336;28;20232;-69
2022/01/08 06:17:01;;;;;;;10.23;4.97;;;2.30;99.90;;;;;;4985332;28;20256;-68
2022/01/08 06:19:28;;;;;;;7.30;4.20;;;2.30;99.90;;;;;;4986696;28;20200;-68
2022/01/08 06:21:55;;;;;;;9.90;4.83;;;2.30;99.90;;;;;;4983750;28;20200;-66
2022/01/08 06:24:21;;;;;;;9.40;4.80;;;2.30;99.90;;;;;;4976505;28;20275;-71
2022/01/08 06:26:48;;;;;;;9.10;4.67;;;2.20;99.90;;;;;;4990499;28;20597;-68
2022/01/08 06:29:14;;;;;;;6.77;4.23;;;2.10;99.90;;;;;;4987521;28;20817;-68
2022/01/08 06:31:41;;;;;;;8.77;4.77;;;2.10;99.90;;;;;;4985153;28;20225;-68
2022/01/08 06:34:08;;;;;;;9.17;5.07;;;2.10;99.90;;;;;;4995522;28;20721;-70
2022/01/08 06:36:35;;;;;;;10.77;5.33;;;2.00;99.90;;;;;;4986863;28;20202;-68
2022/01/08 06:39:01;;;;;;;10.77;5.20;;;2.00;99.90;;;;;;4989980;28;20716;-70
2022/01/08 06:41:29;;;;;;;9.87;5.80;;;2.00;99.90;;;;;;4984087;28;20300;-68
2022/01/08 06:43:57;;;;;;;12.20;6.10;;;2.00;99.90;;;;;;4979944;28;20203;-68
2022/01/08 06:46:24;;;;;;;11.33;5.60;;;2.00;99.90;;;;;;4980125;28;20209;-68
2022/01/08 06:48:51;;;;;;;12.47;5.90;;;2.10;99.90;;;;;;4985103;28;20369;-69
2022/01/08 06:51:17;;;;;;;10.33;6.10;;;2.10;99.90;;;;;;4987679;28;20513;-68
2022/01/08 06:53:44;;;;;;;12.67;5.57;;;2.00;99.90;;;;;;4989522;28;20223;-68
2022/01/08 06:56:11;;;;;;;12.40;6.10;;;2.10;99.90;;;;;;4989405;28;20222;-68
2022/01/08 06:58:37;;;;;;;10.10;5.93;;;2.10;99.90;;;;;;4989082;28;20231;-70
2022/01/08 07:01:04;;;;;;;12.23;5.57;;;2.20;99.90;;;;;;4985950;28;20205;-70
2022/01/08 07:03:31;;;;;;;9.43;5.00;;;2.20;99.90;;;;;;4986682;28;20686;-68
2022/01/08 07:05:58;;;;;;;11.27;5.23;;;2.30;99.90;;;;;;4988587;28;20226;-68
2022/01/08 07:08:24;;;;;;;12.30;6.20;;;2.30;99.90;;;;;;4988590;28;20577;-70
2022/01/08 07:10:51;;;;;;;10.20;5.77;;;2.40;99.90;;;;;;4980511;28;20203;-68
2022/01/08 07:13:17;;;;;;;11.10;5.80;;;2.60;99.90;;;;;;4987247;28;20263;-69
2022/01/08 07:15:44;;;;;;;11.03;5.50;;;2.60;99.90;;;;;;4982597;28;20219;-68
2022/01/08 07:18:11;;;;;;;10.10;5.53;;;2.60;99.90;;;;;;4988542;28;20192;-69
2022/01/08 07:20:38;;;;;;;9.40;5.60;;;2.60;99.90;;;;;;4987615;28;20200;-69
2022/01/08 07:23:05;;;;;;;12.63;5.57;;;2.40;99.90;;;;;;4987345;28;20197;-68
2022/01/08 07:25:32;;;;;;;10.53;5.27;;;2.20;99.90;;;;;;4987871;28;20227;-69
2022/01/08 07:27:58;;;;;;;11.30;5.87;;;2.10;99.90;;;;;;4985759;28;20222;-68
2022/01/08 07:30:25;;;;;;;11.40;6.70;;;2.10;99.90;;;;;;4984803;28;20193;-68
2022/01/08 07:32:52;;;;;;;13.23;6.17;;;2.10;99.90;;;;;;4987912;28;20228;-69
2022/01/08 07:35:22;;;;;;;10.47;6.20;;;2.10;99.90;;;;;;4982215;28;20239;-70
2022/01/08 07:37:51;;;;;;;12.87;5.93;;;2.10;99.90;;;;;;4981504;28;21241;-71
2022/01/08 07:40:18;;;;;;;13.07;5.80;;;2.20;99.90;;;;;;4988118;28;20209;-71
2022/01/08 07:42:46;;;;;;;15.17;6.47;;;2.30;99.90;;;;;;4982846;28;20197;-69
2022/01/08 07:45:14;;;;;;;16.57;6.63;;;2.40;99.90;;;;;;4984225;28;20227;-69
2022/01/08 07:47:41;;;;;;;15.27;7.20;;;2.30;99.90;;;;;;4986474;28;20228;-68
2022/01/08 07:50:08;;;;;;;11.07;6.40;;;2.40;99.90;;;;;;4987807;28;20231;-68
2022/01/08 07:52:35;;;;;;;13.63;6.90;;;2.40;99.90;;;;;;4986926;28;20209;-70
2022/01/08 07:55:02;;;;;;;13.77;6.90;;;2.50;99.90;;;;;;4984511;28;20225;-70
2022/01/08 07:57:29;;;;;;;13.23;6.33;;;2.70;99.90;;;;;;4978065;28;20713;-70
2022/01/08 07:59:56;;;;;;;14.57;6.77;;;2.70;99.90;;;;;;4986847;28;20199;-71
2022/01/08 08:02:22;;;;;;;12.63;6.13;;;2.80;99.90;;;;;;4985875;28;20200;-70
2022/01/08 08:04:49;;;;;;;13.37;6.20;;;2.80;99.90;;;;;;4987921;28;20697;-66
2022/01/08 08:07:36;;;;;;;13.17;6.23;;;2.80;99.90;;;;;;4989423;28;20204;-71
2022/01/08 08:10:12;;;;;;;10.10;5.40;;;3.00;99.90;;;;;;4988112;28;20236;-66
2022/01/08 08:12:40;;;;;;;13.77;5.50;;;2.90;99.90;;;;;;4992224;28;20284;-70
2022/01/08 08:15:08;;;;;;;9.27;5.27;;;2.90;99.90;;;;;;4983970;28;20230;-69
2022/01/08 08:17:35;;;;;;;9.57;5.60;;;2.80;99.90;;;;;;4990620;28;20225;-69
2022/01/08 08:20:05;;;;;;;11.20;5.13;;;2.70;99.90;;;;;;4987377;28;20224;-69
2022/01/08 08:22:32;;;;;;;14.10;5.17;;;2.60;99.90;;;;;;4992421;28;20193;-69
2022/01/08 08:24:59;;;;;;;10.37;4.60;;;2.50;99.90;;;;;;4992203;28;20233;-69
2022/01/08 08:27:26;;;;;;;9.50;4.60;;;2.50;99.90;;;;;;4991090;28;20255;-68
2022/01/08 08:29:52;;;;;;;10.10;4.33;;;2.60;99.90;;;;;;4988972;28;20212;-68
2022/01/08 08:32:19;;;;;;;8.80;3.87;;;2.70;99.90;;;;;;4988621;28;20251;-69
2022/01/08 08:34:46;;;;;;;6.47;3.93;;;2.80;99.90;;;;;;4990912;28;20232;-69
2022/01/08 08:37:13;;;;;;;9.47;4.07;;;2.70;99.90;;;;;;4991783;28;20197;-70
2022/01/08 08:39:40;;;;;;;9.17;4.40;;;2.70;99.90;;;;;;4990029;28;20197;-66
2022/01/08 08:42:07;;;;;;;7.40;3.97;;;2.60;99.90;;;;;;4990107;28;21376;-66
2022/01/08 08:44:34;;;;;;;7.30;3.67;;;2.60;99.90;;;;;;4978810;28;20217;-69
2022/01/08 08:47:01;;;;;;;7.10;3.50;;;2.50;99.90;;;;;;4987985;28;20207;-71
2022/01/08 08:49:27;;;;;;;5.87;3.40;;;2.50;99.90;;;;;;4989843;28;20204;-69
2022/01/08 08:51:54;;;;;;;5.30;3.33;;;2.50;99.90;;;;;;4980541;28;20205;-66
2022/01/08 08:54:21;;;;;;;9.97;3.73;;;2.50;99.90;;;;;;4991279;28;20227;-68
2022/01/08 08:56:48;;;;;;;8.30;3.30;;;2.50;99.90;;;;;;4990423;28;20196;-69
2022/01/08 08:59:15;;;;;;;7.20;3.30;;;2.60;99.90;;;;;;4984883;28;20208;-69
2022/01/08 09:01:41;;;;;;;11.90;3.13;;;2.70;99.90;;;;;;4988549;28;20204;-71
2022/01/08 09:04:08;;;;;;;7.60;3.10;;;2.70;99.90;;;;;;4988200;28;20204;-69
2022/01/08 09:06:35;;;;;;;10.20;3.03;;;2.80;99.90;;;;;;4985479;28;20219;-69
2022/01/08 09:09:02;;;;;;;11.13;3.50;;;2.80;99.90;;;;;;4989900;28;20208;-72
2022/01/08 09:11:29;;;;;;;9.20;3.20;;;2.90;99.90;;;;;;4983578;28;20553;-69
2022/01/08 09:13:56;;;;;;;5.83;3.43;;;3.10;99.90;;;;;;4983557;28;20231;-69
2022/01/08 09:16:23;;;;;;;10.03;3.53;;;3.20;99.90;;;;;;4989736;28;20277;-70
2022/01/08 09:18:52;;;;;;;9.67;3.30;;;3.40;99.90;;;;;;4985149;28;20193;-68
2022/01/08 09:21:19;;;;;;;9.63;3.70;;;3.50;99.90;;;;;;4994193;28;20206;-69
2022/01/08 09:23:46;;;;;;;7.93;3.87;;;3.70;99.90;;;;;;4981552;28;20202;-68
2022/01/08 09:26:13;;;;;;;9.83;3.63;;;4.00;99.90;;;;;;4987034;28;20652;-69
2022/01/08 09:28:39;;;;;;;10.33;3.67;;;4.20;99.90;;;;;;4988559;28;20208;-68
2022/01/08 09:31:07;;;;;;;9.80;3.80;;;4.30;99.90;;;;;;4989468;28;20217;-71
2022/01/08 09:33:33;;;;;;;7.57;3.40;;;4.60;99.90;;;;;;4987341;28;20223;-69
2022/01/08 09:36:00;;;;;;;8.10;3.00;;;4.80;99.90;;;;;;4988938;28;20244;-68
2022/01/08 09:38:27;;;;;;;7.37;3.27;;;4.90;99.90;;;;;;4987245;28;20201;-67
2022/01/08 09:40:54;;;;;;;5.53;2.70;;;4.80;99.90;;;;;;4989785;28;20266;-68
2022/01/08 09:43:21;;;;;;;7.90;3.17;;;4.90;99.90;;;;;;4982437;28;20636;-68
2022/01/08 09:45:48;;;;;;;8.93;3.10;;;5.00;99.90;;;;;;4986300;28;20300;-70
2022/01/08 09:48:17;;;;;;;6.90;3.10;;;5.00;99.90;;;;;;4988350;28;20478;-68
2022/01/08 09:50:44;;;;;;;6.10;2.87;;;5.00;99.90;;;;;;4978529;28;20207;-69
2022/01/08 09:53:11;;;;;;;9.93;3.00;;;5.10;99.90;;;;;;4980353;28;20208;-69
2022/01/08 09:55:39;;;;;;;6.37;3.00;;;5.40;99.90;;;;;;4987500;28;20223;-70
2022/01/08 09:58:05;;;;;;;6.77;3.00;;;5.60;99.90;;;;;;4989573;28;20204;-71
2022/01/08 10:00:35;;;;;;;8.70;2.63;;;5.50;99.90;;;;;;4986140;28;20700;-69
2022/01/08 10:03:24;;;;;;;7.63;3.07;;;5.00;99.90;;;;;;4983857;28;20222;-70
2022/01/08 10:05:51;;;;;;;7.70;2.43;;;4.80;99.90;;;;;;4987071;28;20307;-67
2022/01/08 10:08:41;;;;;;;4.77;2.70;;;4.60;99.90;;;;;;4983356;28;20636;-70
2022/01/08 10:11:08;;;;;;;6.83;3.13;;;4.60;99.90;;;;;;4988494;28;20208;-69
2022/01/08 10:13:39;;;;;;;6.27;2.43;;;4.40;99.90;;;;;;4987675;28;20207;-70
2022/01/08 10:18:59;;;;;;;7.30;3.20;;;4.40;99.90;;;;;;4982987;28;20203;-70
2022/01/08 10:21:29;;;;;;;3.73;2.27;;;4.40;99.90;;;;;;4989142;28;20609;-70
2022/01/08 10:24:08;;;;;;;8.03;3.00;;;4.20;99.90;;;;;;4990419;28;20201;-70
2022/01/08 10:26:37;;;;;;;9.63;2.67;;;4.10;99.90;;;;;;4987035;28;20226;-68
2022/01/08 10:29:11;;;;;;;4.60;2.47;;;3.90;99.90;;;;;;4979929;28;20201;-68
2022/01/08 10:31:48;;;;;;;8.97;2.67;;;3.90;99.90;;;;;;4982256;28;20611;-68
2022/01/08 10:34:24;;;;;;;7.13;3.30;;;3.90;99.90;;;;;;4986104;28;20704;-68
2022/01/08 10:37:04;;;;;;;7.33;3.00;;;3.80;99.90;;;;;;4984320;28;20253;-69
2022/01/08 10:39:36;;;;;;;5.83;3.17;;;3.80;99.90;;;;;;4978611;28;20629;-70
2022/01/08 10:42:16;;;;;;;7.60;2.83;;;3.90;99.90;;;;;;4986453;28;20203;-68
2022/01/08 10:44:46;;;;;;;7.20;2.77;;;4.00;99.90;;;;;;4987119;28;20212;-70
2022/01/08 10:47:19;;;;;;;6.00;2.90;;;4.00;99.90;;;;;;4983452;28;20201;-68
2022/01/08 10:50:06;;;;;;;7.43;2.63;;;4.00;99.90;;;;;;4993192;28;20233;-70
2022/01/08 10:52:46;;;;;;;5.70;2.80;;;4.00;99.90;;;;;;4986293;28;20197;-68
2022/01/08 10:55:13;;;;;;;5.67;3.13;;;4.20;99.90;;;;;;4977025;28;20692;-68
2022/01/08 10:57:45;;;;;;;6.83;2.73;;;4.30;99.90;;;;;;4983346;28;20200;-68
2022/01/08 11:00:14;;;;;;;9.33;3.27;;;4.40;99.90;;;;;;4989369;28;20210;-68
2022/01/08 11:02:43;;;;;;;5.33;3.27;;;4.50;99.90;;;;;;4980876;28;20211;-68
2022/01/08 11:05:11;;;;;;;9.27;3.07;;;4.60;99.90;;;;;;4983226;28;20293;-67
2022/01/08 11:07:41;;;;;;;11.00;2.93;;;4.90;99.90;;;;;;4976836;28;20264;-66
2022/01/08 11:10:15;;;;;;;7.70;3.20;;;5.10;99.90;;;;;;4983023;28;20206;-68
2022/01/08 11:12:44;;;;;;;5.83;3.10;;;5.20;99.90;;;;;;4989381;28;20200;-68
2022/01/08 11:17:54;;;;;;;4.83;3.10;;;5.50;99.90;;;;;;4984621;28;20288;-68
2022/01/08 11:20:44;;;;;;;9.30;3.30;;;5.60;99.90;;;;;;4984568;28;20205;-67
2022/01/08 11:23:12;;;;;;;9.57;3.20;;;5.80;99.90;;;;;;4988541;28;20212;-68
2022/01/08 11:25:39;;;;;;;8.87;3.30;;;5.80;99.90;;;;;;4979381;28;20230;-67
2022/01/08 11:28:10;;;;;;;6.20;2.63;;;5.80;99.90;;;;;;4985016;28;20214;-70
2022/01/08 11:30:45;;;;;;;6.07;2.93;;;5.70;99.90;;;;;;4986770;28;20605;-70
2022/01/08 11:33:21;;;;;;;7.77;3.10;;;5.50;99.90;;;;;;4984900;28;20255;-68
2022/01/08 11:35:50;;;;;;;5.60;3.10;;;5.40;99.90;;;;;;4987220;28;20255;-68
2022/01/08 11:38:19;;;;;;;5.67;3.00;;;5.40;99.90;;;;;;4982420;28;20209;-70
2022/01/08 11:40:49;;;;;;;7.07;2.90;;;5.40;99.90;;;;;;4982869;28;20208;-67
2022/01/08 11:43:18;;;;;;;5.93;3.00;;;5.40;99.90;;;;;;4991628;28;20208;-68
2022/01/08 11:45:55;;;;;;;7.53;3.40;;;5.30;99.90;;;;;;4986722;28;20243;-69
2022/01/08 11:48:25;;;;;;;9.00;3.63;;;5.50;99.90;;;;;;4988814;28;20204;-69
2022/01/08 11:50:55;;;;;;;5.27;2.90;;;5.70;99.90;;;;;;4990907;28;20284;-68
2022/01/08 11:53:30;;;;;;;7.50;3.27;;;5.70;99.90;;;;;;4986823;28;20197;-68
2022/01/08 11:56:03;;;;;;;5.77;3.17;;;5.70;99.90;;;;;;4986870;28;20216;-69
2022/01/08 11:58:32;;;;;;;5.20;2.63;;;5.80;99.90;;;;;;4995695;28;20197;-68
2022/01/08 12:01:11;;;;;;;7.07;3.20;;;5.70;99.90;;;;;;4991104;28;20202;-68
2022/01/08 12:03:49;;;;;;;9.63;3.37;;;5.80;99.90;;;;;;4983807;28;20201;-69
2022/01/08 12:06:22;;;;;;;8.07;3.40;;;5.80;99.90;;;;;;4988314;28;20227;-71
2022/01/08 12:09:07;;;;;;;6.70;3.20;;;5.90;99.90;;;;;;4985018;28;20198;-68
2022/01/08 12:11:46;;;;;;;9.00;4.10;;;5.70;99.90;;;;;;4985886;28;20673;-68
2022/01/08 12:14:21;;;;;;;6.77;3.37;;;5.60;99.90;;;;;;4990619;28;20209;-70
2022/01/08 12:16:53;;;;;;;7.43;3.47;;;5.50;99.90;;;;;;5000409;28;20200;-69
2022/01/08 12:19:30;;;;;;;8.87;3.53;;;5.30;99.90;;;;;;4988572;28;20239;-68
2022/01/08 12:21:57;;;;;;;8.57;3.77;;;5.20;99.90;;;;;;4985752;28;20200;-69
2022/01/08 12:24:27;;;;;;;6.97;3.40;;;5.10;99.90;;;;;;4986838;28;20277;-69
2022/01/08 12:27:00;;;;;;;9.00;3.47;;;5.10;99.90;;;;;;4988244;28;20235;-67
2022/01/08 12:29:39;;;;;;;6.23;3.40;;;5.10;99.90;;;;;;4990391;28;20197;-68
2022/01/08 12:32:45;;;;;;;7.20;3.30;;;5.10;99.90;;;;;;4986046;28;20665;-69
2022/01/08 12:37:50;;;;;;;9.43;3.50;;;5.30;99.90;;;;;;4989530;28;20271;-67
2022/01/08 12:40:34;;;;;;;6.53;3.00;;;5.30;99.90;;;;;;4989765;28;20677;-68
2022/01/08 12:43:16;;;;;;;6.47;2.60;;;5.20;99.90;;;;;;4989160;28;20205;-69
2022/01/08 12:45:43;;;;;;;9.33;3.20;;;5.10;99.90;;;;;;4991110;28;20720;-67
2022/01/08 12:48:10;;;;;;;10.67;3.70;;;5.10;99.90;;;;;;4987226;28;20238;-67
2022/01/08 12:50:38;;;;;;;5.47;3.07;;;5.10;99.90;;;;;;4990044;28;20208;-67
2022/01/08 12:53:05;;;;;;;9.53;3.77;;;5.00;99.90;;;;;;4988031;28;20209;-67
2022/01/08 12:55:53;;;;;;;8.73;4.00;;;5.10;99.90;;;;;;4979829;28;20232;-68
2022/01/08 12:58:24;;;;;;;8.93;3.70;;;5.10;99.90;;;;;;4990558;28;20200;-67
2022/01/08 13:00:58;;;;;;;6.47;3.60;;;5.00;99.90;;;;;;4990346;28;20207;-70
2022/01/08 13:03:25;;;;;;;6.83;3.60;;;5.00;99.90;;;;;;4982586;28;20223;-67
2022/01/08 13:05:53;;;;;;;9.00;3.97;;;5.00;99.90;;;;;;4988730;28;20602;-67
2022/01/08 13:08:27;;;;;;;7.53;3.37;;;5.10;99.90;;;;;;4989357;28;20201;-67
2022/01/08 13:10:57;;;;;;;7.43;3.30;;;5.10;99.90;;;;;;4985322;28;20233;-67
2022/01/08 13:13:24;;;;;;;5.50;2.70;;;5.10;99.90;;;;;;4983801;28;20204;-67
2022/01/08 13:15:53;;;;;;;7.33;3.13;;;5.10;99.90;;;;;;4989493;28;20721;-69
2022/01/08 13:18:24;;;;;;;6.87;3.40;;;5.20;99.90;;;;;;4985737;28;20197;-68
2022/01/08 13:21:04;;;;;;;6.40;3.00;;;5.20;99.90;;;;;;4988854;28;20608;-67
2022/01/08 13:23:31;;;;;;;6.90;3.33;;;5.20;99.90;;;;;;4984300;28;20534;-68
2022/01/08 13:25:58;;;;;;;6.90;3.40;;;5.30;99.90;;;;;;4989814;28;20230;-69
2022/01/08 13:28:27;;;;;;;6.73;3.03;;;5.40;99.90;;;;;;4988191;28;20205;-67
2022/01/08 13:30:53;;;;;;;8.00;3.93;;;5.50;99.90;;;;;;4990432;28;20208;-67
2022/01/08 13:33:25;;;;;;;8.13;3.73;;;5.60;99.90;;;;;;4985270;28;20689;-68